Time;durP1;ratioP1;P1;durP2;ratioP2;P2;SDS_P1;SDS_P2;PMS_P1;PMS_P2;Temp;Humidity;BMP_temperature;BMP_pressure;BME280_temperature;BME280_humidity;BME280_pressure;Samples;Min_cycle;Max_cycle;Signal;HPM_P1;HPM_P2
2023/07/31 00:02:16;;;;;;;3.70;2.30;;;;;;;15.45;98.68;155328.91;5028324;28;20526;-84
2023/07/31 00:05:03;;;;;;;3.80;2.73;;;;;;;15.44;99.19;155326.28;5014956;28;20443;-84
2023/07/31 00:08:20;;;;;;;3.10;2.40;;;;;;;15.42;99.47;155322.41;5008850;28;20479;-84
2023/07/31 00:11:05;;;;;;;3.90;2.30;;;;;;;15.39;99.46;155314.59;4964390;28;20521;-84
2023/07/31 00:13:50;;;;;;;3.07;2.27;;;;;;;15.34;99.97;155301.59;5022211;28;20603;-84
2023/07/31 00:16:35;;;;;;;3.00;2.43;;;;;;;15.33;100.00;155297.72;5027805;28;20837;-84
2023/07/31 00:19:21;;;;;;;2.30;1.93;;;;;;;15.24;99.65;155275.63;5010676;28;20867;-84
2023/07/31 00:22:07;;;;;;;3.00;2.33;;;;;;;15.27;100.00;155283.44;5026085;28;20454;-84
2023/07/31 00:24:52;;;;;;;3.27;2.50;;;;;;;15.22;99.52;155270.44;5028001;28;20783;-85
2023/07/31 00:27:37;;;;;;;3.17;2.33;;;;;;;15.25;100.00;155278.19;5013572;28;20466;-84
2023/07/31 00:30:25;;;;;;;3.80;2.17;;;;;;;15.28;100.00;155286.00;5027814;28;20443;-84
2023/07/31 00:33:10;;;;;;;3.10;2.23;;;;;;;15.22;100.00;155270.44;5027498;28;20525;-85
2023/07/31 00:35:56;;;;;;;3.77;2.30;;;;;;;15.21;100.00;155267.81;5027770;28;20466;-85
2023/07/31 00:38:42;;;;;;;2.80;2.00;;;;;;;15.17;100.00;155257.41;5027872;28;20465;-85
2023/07/31 00:41:28;;;;;;;12.73;2.63;;;;;;;15.16;100.00;155254.81;5029152;28;20438;-85
2023/07/31 00:44:13;;;;;;;3.50;1.87;;;;;;;15.13;100.00;155247.03;5029456;28;21033;-85
2023/07/31 00:46:59;;;;;;;3.77;2.20;;;;;;;15.11;100.00;155243.16;5028858;28;20533;-84
2023/07/31 00:49:44;;;;;;;5.90;3.50;;;;;;;15.08;100.00;155234.03;5027658;28;20582;-84
2023/07/31 00:52:29;;;;;;;3.20;2.33;;;;;;;15.03;100.00;155222.34;5028805;28;20438;-85
2023/07/31 00:55:16;;;;;;;3.60;2.90;;;;;;;15.03;100.00;155221.03;5005678;28;20763;-85
2023/07/31 00:58:02;;;;;;;3.77;2.63;;;;;;;15.03;100.00;155221.03;5026844;28;20447;-85
2023/07/31 01:00:47;;;;;;;3.17;2.40;;;;;;;15.03;100.00;155221.03;5014013;28;21008;-85
2023/07/31 01:03:32;;;;;;;5.33;2.80;;;;;;;14.99;100.00;155210.63;5036636;28;20442;-85
2023/07/31 01:06:23;;;;;;;2.70;2.50;;;;;;;14.98;100.00;155208.06;5023005;28;20439;-85
2023/07/31 01:09:13;;;;;;;2.73;2.33;;;;;;;14.96;100.00;155202.81;5024953;28;20443;-85
2023/07/31 01:12:03;;;;;;;3.90;2.70;;;;;;;14.96;100.00;155202.81;5027380;28;20455;-85
2023/07/31 01:15:03;;;;;;;3.23;2.10;;;;;;;14.94;100.00;155198.94;5027367;28;20442;-84
2023/07/31 01:17:49;;;;;;;2.80;2.07;;;;;;;14.91;100.00;155191.16;5026701;28;20487;-85
2023/07/31 01:20:34;;;;;;;5.13;2.67;;;;;;;14.89;100.00;155184.66;5026422;28;20454;-85
2023/07/31 01:23:58;;;;;;;2.57;2.37;;;;;;;14.87;100.00;155179.47;5026853;28;20789;-85
2023/07/31 01:26:47;;;;;;;3.03;2.73;;;;;;;14.85;100.00;155174.28;4946238;28;20610;-85
2023/07/31 01:29:38;;;;;;;2.30;2.10;;;;;;;14.86;100.00;155178.16;4947768;28;20454;-85
2023/07/31 01:32:26;;;;;;;4.13;2.20;;;;;;;14.88;100.00;155183.34;5020092;28;20521;-85
2023/07/31 01:35:11;;;;;;;2.93;2.60;;;;;;;14.85;100.00;155174.28;5027313;28;20446;-85
2023/07/31 01:37:56;;;;;;;3.50;2.10;;;;;;;14.85;100.00;155175.53;5025737;28;20486;-85
2023/07/31 01:40:43;;;;;;;2.73;2.20;;;;;;;14.84;100.00;155171.66;5026991;28;20477;-85
2023/07/31 01:43:29;;;;;;;3.30;2.63;;;;;;;14.80;100.00;155161.31;5027433;28;20533;-85
2023/07/31 01:46:15;;;;;;;3.27;2.27;;;;;;;14.77;100.00;155153.50;5024136;28;20455;-85
2023/07/31 01:49:00;;;;;;;4.43;3.23;;;;;;;14.76;100.00;155152.19;5027048;28;20494;-84
2023/07/31 01:51:45;;;;;;;4.57;2.40;;;;;;;14.76;100.00;155150.88;5026483;28;20423;-85
2023/07/31 01:54:30;;;;;;;4.20;3.00;;;;;;;14.74;100.00;155145.69;5026527;28;20495;-85
2023/07/31 01:57:15;;;;;;;2.30;2.07;;;;;;;14.72;100.00;155140.50;5019031;28;21356;-85
2023/07/31 02:00:02;;;;;;;3.30;2.50;;;;;;;14.71;100.00;155137.91;5011061;28;20826;-85
2023/07/31 02:02:56;;;;;;;3.47;2.83;;;;;;;14.67;100.00;155127.53;5004245;28;20475;-85
2023/07/31 02:05:45;;;;;;;3.40;2.33;;;;;;;14.67;100.00;155128.78;5021763;28;20454;-85
2023/07/31 02:08:30;;;;;;;3.90;2.60;;;;;;;14.66;100.00;155126.22;5011081;28;20443;-85
2023/07/31 02:11:15;;;;;;;3.67;2.37;;;;;;;14.68;100.00;155130.09;5016504;28;20463;-85
2023/07/31 02:14:00;;;;;;;3.27;2.60;;;;;;;14.67;100.00;155127.53;5009264;28;20805;-85
2023/07/31 02:16:47;;;;;;;3.40;2.50;;;;;;;14.61;100.00;155113.25;5010721;28;20788;-85
2023/07/31 02:19:32;;;;;;;3.87;2.57;;;;;;;14.61;100.00;155114.50;5009646;28;20958;-85
2023/07/31 02:22:18;;;;;;;3.40;2.40;;;;;;;14.60;100.00;155111.94;5019333;28;20468;-85
2023/07/31 02:25:03;;;;;;;2.90;2.47;;;;;;;14.55;100.00;155098.94;5010775;28;20892;-85
2023/07/31 02:27:48;;;;;;;3.40;2.63;;;;;;;14.60;100.00;155111.94;5005892;28;20465;-85
2023/07/31 02:30:34;;;;;;;2.70;2.33;;;;;;;14.59;100.00;155109.31;5021112;28;20456;-85
2023/07/31 02:33:21;;;;;;;3.60;2.40;;;;;;;14.60;100.00;155111.94;5001273;28;20448;-85
2023/07/31 02:36:07;;;;;;;3.27;2.60;;;;;;;14.61;100.00;155113.25;5021872;28;20447;-85
2023/07/31 02:38:52;;;;;;;2.90;2.10;;;;;;;14.60;100.00;155110.63;5012325;28;20452;-84
2023/07/31 02:41:37;;;;;;;3.87;2.77;;;;;;;14.56;100.00;155100.25;5010356;28;20464;-85
2023/07/31 02:44:22;;;;;;;3.10;2.33;;;;;;;14.54;100.00;155096.31;5010847;28;20420;-85
2023/07/31 02:47:08;;;;;;;3.00;2.50;;;;;;;14.50;100.00;155085.97;5009845;28;21088;-85
2023/07/31 02:49:55;;;;;;;2.77;2.40;;;;;;;14.51;100.00;155088.53;5009129;28;20463;-85
2023/07/31 02:52:41;;;;;;;3.50;2.57;;;;;;;14.49;100.00;155083.34;5006365;28;20451;-85
2023/07/31 02:55:26;;;;;;;2.70;2.20;;;;;;;14.46;100.00;155075.53;5021604;28;20487;-85
2023/07/31 02:58:11;;;;;;;4.60;2.77;;;;;;;14.42;100.00;155065.19;5010456;28;20483;-85
2023/07/31 03:00:56;;;;;;;2.87;2.60;;;;;;;14.40;100.00;155059.94;5011803;28;20502;-85
2023/07/31 03:03:42;;;;;;;4.13;2.83;;;;;;;14.37;100.00;155052.19;5010567;28;20459;-85
2023/07/31 03:06:29;;;;;;;3.20;2.40;;;;;;;14.39;100.00;155057.38;5002641;28;21036;-85
2023/07/31 03:09:14;;;;;;;4.00;2.53;;;;;;;14.37;100.00;155052.19;4997437;28;21087;-85
2023/07/31 03:11:59;;;;;;;3.13;2.30;;;;;;;14.35;100.00;155046.97;5008138;28;20460;-85
2023/07/31 03:14:45;;;;;;;2.60;2.40;;;;;;;14.30;100.00;155032.63;5007525;28;20456;-85
2023/07/31 03:17:30;;;;;;;2.87;2.40;;;;;;;14.32;100.00;155039.16;4997610;28;20481;-85
2023/07/31 03:20:16;;;;;;;4.23;2.40;;;;;;;14.27;100.00;155024.88;4997421;28;20955;-85
2023/07/31 03:23:02;;;;;;;5.13;3.40;;;;;;;14.25;100.00;155020.94;5010094;28;20512;-86
2023/07/31 03:25:58;;;;;;;3.10;2.80;;;;;;;14.23;100.00;155014.47;5008380;28;20444;-85
2023/07/31 03:28:46;;;;;;;2.80;2.20;;;;;;;14.22;100.00;155013.16;4985281;28;20484;-85
2023/07/31 03:31:31;;;;;;;4.97;2.30;;;;;;;14.23;100.00;155015.78;5008476;28;20834;-86
2023/07/31 03:34:17;;;;;;;3.20;2.47;;;;;;;14.22;100.00;155013.16;5006795;28;20546;-85
2023/07/31 03:37:02;;;;;;;5.83;2.53;;;;;;;14.21;100.00;155010.59;5001410;28;20488;-85
2023/07/31 03:39:49;;;;;;;4.50;2.97;;;;;;;14.24;100.00;155018.38;5008171;28;20953;-85
2023/07/31 03:42:34;;;;;;;3.13;2.63;;;;;;;14.21;100.00;155010.59;5007059;28;20943;-85
2023/07/31 03:45:19;;;;;;;5.00;3.70;;;;;;;14.22;100.00;155013.16;5009586;28;20432;-85
2023/07/31 03:48:06;;;;;;;3.80;2.33;;;;;;;14.26;100.00;155023.56;4988608;28;20487;-85
2023/07/31 03:50:51;;;;;;;3.00;2.63;;;;;;;14.24;100.00;155018.38;5003042;28;20526;-85
2023/07/31 03:53:36;;;;;;;3.70;2.60;;;;;;;14.25;100.00;155019.66;5009023;28;20953;-85
2023/07/31 03:56:22;;;;;;;5.03;2.13;;;;;;;14.25;100.00;155020.94;5002250;28;20448;-85
2023/07/31 03:59:07;;;;;;;3.37;2.20;;;;;;;14.26;100.00;155023.56;5005390;28;20440;-85
2023/07/31 04:01:53;;;;;;;2.43;2.23;;;;;;;14.27;100.00;155026.13;5008958;28;20471;-86
2023/07/31 04:04:38;;;;;;;3.27;2.23;;;;;;;14.33;100.00;155040.47;5001910;28;20465;-85
2023/07/31 04:07:23;;;;;;;3.17;2.20;;;;;;;14.35;100.00;155046.97;5007135;28;20456;-86
2023/07/31 04:10:09;;;;;;;3.03;2.47;;;;;;;14.37;100.00;155052.19;5004581;28;20456;-86
2023/07/31 04:12:56;;;;;;;4.80;2.40;;;;;;;14.42;100.00;155063.88;5002833;28;20467;-86
2023/07/31 04:15:42;;;;;;;2.40;2.20;;;;;;;14.41;100.00;155062.56;5004790;28;20583;-85
2023/07/31 04:18:27;;;;;;;3.07;2.70;;;;;;;14.44;100.00;155070.38;5002238;28;20481;-86
2023/07/31 04:21:12;;;;;;;4.50;2.43;;;;;;;14.50;100.00;155084.66;5005227;28;20448;-85
2023/07/31 04:23:58;;;;;;;3.17;2.03;;;;;;;14.51;100.00;155088.53;5004848;28;20425;-85
2023/07/31 04:26:43;;;;;;;3.07;2.20;;;;;;;14.54;100.00;155096.31;4989554;28;20409;-86
2023/07/31 04:29:30;;;;;;;3.10;2.20;;;;;;;14.55;100.00;155098.94;4996418;28;20512;-86
2023/07/31 04:32:16;;;;;;;2.90;2.40;;;;;;;14.59;100.00;155109.31;5009942;28;20973;-86
2023/07/31 04:35:02;;;;;;;3.53;2.60;;;;;;;14.63;100.00;155118.41;5009634;28;20507;-86
2023/07/31 04:37:48;;;;;;;3.93;2.33;;;;;;;14.66;100.00;155124.91;4999905;28;20657;-85
2023/07/31 04:40:34;;;;;;;2.53;1.90;;;;;;;14.68;100.00;155131.41;5008044;28;20507;-86
2023/07/31 04:43:19;;;;;;;3.10;2.20;;;;;;;14.71;100.00;155139.22;5008156;28;20552;-86
2023/07/31 04:46:06;;;;;;;3.30;2.03;;;;;;;14.77;100.00;155153.50;5009199;28;20451;-85
2023/07/31 04:48:51;;;;;;;3.00;2.20;;;;;;;14.80;100.00;155161.31;5005953;28;21281;-86
2023/07/31 04:51:36;;;;;;;4.13;2.63;;;;;;;14.84;100.00;155171.66;5010117;28;20768;-86
2023/07/31 04:54:22;;;;;;;2.70;2.50;;;;;;;14.89;100.00;155184.66;4993937;28;20476;-85
2023/07/31 04:57:07;;;;;;;3.10;2.50;;;;;;;14.94;100.00;155197.66;5004938;28;20468;-86
2023/07/31 04:59:52;;;;;;;2.50;2.03;;;;;;;14.97;100.00;155206.75;5009073;28;20812;-85
2023/07/31 05:02:39;;;;;;;2.97;2.40;;;;;;;14.95;100.00;155200.25;5007184;28;20479;-85
2023/07/31 05:05:24;;;;;;;7.83;2.67;;;;;;;14.95;100.00;155200.25;5006464;28;20447;-85
2023/07/31 05:08:09;;;;;;;4.47;2.03;;;;;;;14.95;100.00;155200.25;5008926;28;20448;-86
2023/07/31 05:10:55;;;;;;;10.00;2.40;;;;;;;14.97;100.00;155205.44;5005191;28;20555;-85
2023/07/31 05:13:40;;;;;;;3.80;3.03;;;;;;;15.02;100.00;155219.75;5003986;28;20554;-85
2023/07/31 05:16:25;;;;;;;4.40;2.30;;;;;;;15.06;100.00;155228.84;5005600;28;20953;-86
2023/07/31 05:19:12;;;;;;;2.93;2.30;;;;;;;15.15;100.00;155252.22;5003572;28;20451;-86
2023/07/31 05:21:57;;;;;;;3.40;2.03;;;;;;;15.18;100.00;155260.00;5005866;28;20448;-86
2023/07/31 05:24:43;;;;;;;2.93;2.47;;;;;;;15.21;100.00;155267.81;5006346;28;20436;-85
2023/07/31 05:27:28;;;;;;;2.60;2.40;;;;;;;15.26;100.00;155280.81;5013797;28;20459;-86
2023/07/31 05:30:16;;;;;;;4.30;2.47;;;;;;;15.29;100.00;155288.63;5009598;28;20444;-86
2023/07/31 05:33:02;;;;;;;3.43;2.40;;;;;;;15.32;100.00;155296.41;5008438;28;20979;-86
2023/07/31 05:35:48;;;;;;;2.87;2.10;;;;;;;15.40;100.00;155317.22;5008883;28;20486;-86
2023/07/31 05:38:33;;;;;;;3.00;2.57;;;;;;;15.55;100.00;155354.94;5013194;28;20468;-86
2023/07/31 05:41:19;;;;;;;2.70;1.90;;;;;;;15.69;99.50;155392.66;5006660;28;20478;-85
2023/07/31 05:44:04;;;;;;;4.17;2.50;;;;;;;15.87;99.17;155436.81;4996500;28;21099;-85
2023/07/31 05:46:49;;;;;;;3.93;2.73;;;;;;;16.03;99.02;155478.44;5006823;28;20451;-86
2023/07/31 05:49:35;;;;;;;4.10;2.47;;;;;;;16.10;97.73;155496.63;5008845;28;20562;-86
2023/07/31 05:52:21;;;;;;;2.73;2.13;;;;;;;16.28;97.40;155544.75;5008817;28;20451;-85
2023/07/31 05:55:08;;;;;;;2.83;2.23;;;;;;;16.47;96.36;155592.88;5007027;28;20896;-85
2023/07/31 05:57:53;;;;;;;2.70;1.97;;;;;;;16.64;94.64;155637.16;5006917;28;20893;-86
2023/07/31 06:00:40;;;;;;;4.40;2.40;;;;;;;16.76;94.62;155668.38;5009006;28;20786;-86
2023/07/31 06:03:26;;;;;;;3.50;2.20;;;;;;;16.82;92.91;155684.00;5008272;28;20487;-85
2023/07/31 06:06:13;;;;;;;2.90;2.30;;;;;;;16.96;93.84;155720.44;5008739;28;20444;-85
2023/07/31 06:09:00;;;;;;;3.60;2.60;;;;;;;17.15;93.21;155767.28;5006529;28;20486;-85
2023/07/31 06:11:46;;;;;;;3.30;2.20;;;;;;;17.43;91.97;155840.13;5007755;28;20647;-85
2023/07/31 06:14:31;;;;;;;4.97;2.07;;;;;;;17.75;91.00;155923.50;5008579;28;20579;-86
2023/07/31 06:17:16;;;;;;;6.70;2.10;;;;;;;17.99;88.92;155986.00;5007741;28;20455;-85
2023/07/31 06:20:02;;;;;;;3.17;2.30;;;;;;;17.98;86.65;155983.38;5008844;28;20495;-86
2023/07/31 06:22:48;;;;;;;3.27;2.50;;;;;;;17.92;86.99;155967.78;5008647;28;20534;-85
2023/07/31 06:25:35;;;;;;;3.03;2.40;;;;;;;17.92;87.37;155967.78;5007650;28;20435;-86
2023/07/31 06:28:20;;;;;;;5.27;2.20;;;;;;;17.96;86.94;155978.19;5007285;28;20455;-86
2023/07/31 06:31:06;;;;;;;2.57;1.97;;;;;;;18.08;88.26;156009.41;5008197;28;20940;-86
2023/07/31 06:33:43;;;;;;;3.80;2.20;;;;;;;18.22;88.87;156045.91;5045065;22;20529;-80
2023/07/31 06:36:28;;;;;;;3.30;2.07;;;;;;;18.56;88.01;156131.94;5026603;28;20466;-80
2023/07/31 06:39:13;;;;;;;2.47;1.90;;;;;;;18.99;83.49;156242.66;5027440;28;20598;-80
2023/07/31 06:41:59;;;;;;;2.30;1.90;;;;;;;19.18;82.45;156293.50;5024318;28;20941;-79
2023/07/31 06:44:45;;;;;;;4.43;1.93;;;;;;;19.30;82.69;156324.75;5023988;28;20439;-79
2023/07/31 06:47:30;;;;;;;2.90;2.03;;;;;;;19.37;80.66;156341.72;5024828;28;20482;-79
2023/07/31 06:50:15;;;;;;;3.03;2.00;;;;;;;19.37;81.44;156343.06;5026246;28;20436;-80
2023/07/31 06:53:00;;;;;;;4.60;1.80;;;;;;;19.39;79.60;156348.28;5026859;28;20805;-79
2023/07/31 06:55:48;;;;;;;4.37;2.20;;;;;;;19.47;78.97;156367.81;5027273;28;21015;-80
2023/07/31 06:58:34;;;;;;;2.37;1.80;;;;;;;19.61;76.77;156403.03;5027808;28;20538;-80
2023/07/31 07:01:19;;;;;;;4.63;2.60;;;;;;;19.68;79.66;156421.25;5027396;28;20442;-78
2023/07/31 07:04:05;;;;;;;3.73;2.07;;;;;;;19.79;75.57;156451.28;5028085;28;20444;-79
2023/07/31 07:06:50;;;;;;;3.73;1.87;;;;;;;19.94;76.35;156489.06;5035780;28;20598;-80
2023/07/31 07:09:35;;;;;;;2.93;2.10;;;;;;;19.96;76.45;156494.31;5028237;28;20438;-78
2023/07/31 07:12:21;;;;;;;2.90;2.10;;;;;;;19.97;77.08;156496.88;5026569;28;20478;-79
2023/07/31 07:15:09;;;;;;;2.50;2.13;;;;;;;19.94;76.79;156490.38;5026455;28;20443;-79
2023/07/31 07:17:54;;;;;;;3.50;1.97;;;;;;;20.03;75.58;156512.53;5025716;28;21002;-80
2023/07/31 07:20:40;;;;;;;2.87;1.80;;;;;;;20.37;76.90;156599.97;5025910;28;20452;-78
2023/07/31 07:23:33;;;;;;;2.37;1.70;;;;;;;20.60;75.82;156661.28;5027521;28;20458;-78
2023/07/31 07:26:19;;;;;;;4.60;2.17;;;;;;;20.76;73.25;156700.44;5023454;28;20530;-78
2023/07/31 07:29:07;;;;;;;3.30;2.07;;;;;;;20.92;71.63;156742.16;5025617;28;21119;-79
2023/07/31 07:31:55;;;;;;;3.60;2.10;;;;;;;21.21;73.53;156817.91;5029247;28;20998;-78
2023/07/31 07:34:40;;;;;;;2.20;1.60;;;;;;;21.28;70.50;156834.88;5045805;28;21051;-78
2023/07/31 07:37:25;;;;;;;4.80;2.07;;;;;;;21.29;70.92;156838.78;5043957;28;20552;-79
2023/07/31 07:40:11;;;;;;;3.07;2.20;;;;;;;21.16;69.49;156804.84;5029893;28;20485;-79
2023/07/31 07:42:57;;;;;;;3.00;2.07;;;;;;;21.02;68.75;156769.56;5046222;28;20453;-79
2023/07/31 07:45:42;;;;;;;2.90;2.33;;;;;;;20.94;71.81;156748.69;5047280;28;20940;-79
2023/07/31 07:48:29;;;;;;;4.80;2.17;;;;;;;21.03;76.29;156770.88;5044748;28;20942;-79
2023/07/31 07:51:14;;;;;;;3.80;2.60;;;;;;;21.12;73.08;156794.44;5045237;28;20792;-79
2023/07/31 07:53:59;;;;;;;2.63;2.00;;;;;;;21.14;70.11;156800.94;5046373;28;20435;-79
2023/07/31 07:56:44;;;;;;;4.40;2.33;;;;;;;21.46;73.12;156883.19;5044303;28;21528;-79
2023/07/31 07:59:29;;;;;;;2.63;1.93;;;;;;;21.69;70.78;156943.22;5042664;28;20454;-79
2023/07/31 08:02:15;;;;;;;4.27;2.17;;;;;;;21.99;69.52;157019.00;5045734;28;20548;-80
2023/07/31 08:05:02;;;;;;;3.10;2.00;;;;;;;22.21;68.88;157077.75;5046226;28;20490;-79
2023/07/31 08:07:47;;;;;;;3.60;2.43;;;;;;;22.28;71.75;157096.06;5030543;28;20454;-79
2023/07/31 08:10:32;;;;;;;3.90;2.17;;;;;;;22.34;68.76;157110.44;5030661;28;20442;-79
2023/07/31 08:13:18;;;;;;;3.67;2.07;;;;;;;22.36;64.88;157116.97;5030740;28;20470;-80
2023/07/31 08:16:03;;;;;;;4.20;2.13;;;;;;;22.68;66.25;157197.97;5044109;28;20458;-80
2023/07/31 08:18:49;;;;;;;2.57;1.97;;;;;;;22.77;65.46;157222.78;5057607;28;21038;-80
2023/07/31 08:21:36;;;;;;;4.00;2.30;;;;;;;23.00;63.29;157281.63;5046506;28;20943;-81
2023/07/31 08:24:21;;;;;;;2.87;2.10;;;;;;;23.15;61.10;157319.47;5043028;28;20446;-81
2023/07/31 08:27:07;;;;;;;4.23;2.10;;;;;;;23.27;66.24;157350.88;5038861;28;21225;-80
2023/07/31 08:29:54;;;;;;;4.50;2.00;;;;;;;23.36;63.33;157374.38;5043585;28;20480;-80
2023/07/31 08:32:39;;;;;;;5.53;2.47;;;;;;;23.57;60.72;157429.31;5042576;28;20846;-80
2023/07/31 08:35:34;;;;;;;2.40;1.83;;;;;;;23.73;64.00;157471.16;5042714;28;20450;-81
2023/07/31 08:38:25;;;;;;;3.83;2.20;;;;;;;23.82;62.41;157494.72;5052199;28;20482;-81
2023/07/31 08:41:17;;;;;;;4.30;2.33;;;;;;;23.93;64.68;157522.16;5028949;28;20446;-80
2023/07/31 08:44:02;;;;;;;4.93;2.47;;;;;;;24.12;63.58;157571.88;5038070;28;20844;-80
2023/07/31 08:46:48;;;;;;;3.40;2.07;;;;;;;24.22;61.92;157599.31;5042142;28;20469;-80
2023/07/31 08:49:37;;;;;;;2.43;2.23;;;;;;;24.21;64.95;157595.44;5040603;28;20610;-80
2023/07/31 08:52:22;;;;;;;3.43;2.17;;;;;;;24.07;64.59;157558.75;5041989;28;20446;-80
2023/07/31 08:55:13;;;;;;;2.90;2.23;;;;;;;23.86;63.55;157505.16;5044051;28;20470;-80
2023/07/31 08:57:58;;;;;;;5.67;2.53;;;;;;;23.71;61.79;157465.94;5043274;28;20443;-80
2023/07/31 09:00:48;;;;;;;4.40;2.30;;;;;;;23.59;65.23;157434.53;5025475;28;20454;-81
2023/07/31 09:03:44;;;;;;;3.20;2.27;;;;;;;23.56;62.82;157426.75;5040400;28;20809;-80
2023/07/31 09:06:35;;;;;;;2.53;1.80;;;;;;;23.46;65.54;157401.88;5043157;28;21087;-80
2023/07/31 09:09:51;;;;;;;3.10;1.77;;;;;;;23.35;64.92;157371.78;5045037;28;20688;-81
2023/07/31 09:12:38;;;;;;;3.50;2.90;;;;;;;23.25;66.40;157346.94;5021287;28;20594;-80
2023/07/31 09:15:24;;;;;;;4.87;2.50;;;;;;;23.10;65.25;157306.41;5045014;28;20450;-80
2023/07/31 09:18:10;;;;;;;3.97;2.60;;;;;;;23.15;69.96;157320.81;5043562;28;20446;-80
2023/07/31 09:21:03;;;;;;;4.20;2.27;;;;;;;23.22;67.53;157337.81;5044993;28;20917;-80
2023/07/31 09:23:49;;;;;;;3.40;2.40;;;;;;;23.19;63.77;157329.97;5044634;28;20857;-80
2023/07/31 09:26:35;;;;;;;3.70;2.30;;;;;;;23.22;63.31;157339.06;5044482;28;20521;-80
2023/07/31 09:29:23;;;;;;;3.10;2.20;;;;;;;23.23;69.66;157340.41;5044609;28;20442;-80
2023/07/31 09:32:16;;;;;;;2.53;2.07;;;;;;;23.18;68.23;157328.66;5044123;28;21552;-80
2023/07/31 09:35:02;;;;;;;7.00;2.43;;;;;;;23.20;71.24;157333.88;5044442;28;20843;-80
2023/07/31 09:37:51;;;;;;;5.43;3.17;;;;;;;23.20;67.48;157332.53;5027587;28;20462;-79
2023/07/31 09:40:37;;;;;;;2.93;2.03;;;;;;;23.30;67.16;157358.72;5043396;28;20466;-80
2023/07/31 09:43:24;;;;;;;4.43;2.50;;;;;;;23.40;70.66;157384.91;5025855;28;20453;-80
2023/07/31 09:46:31;;;;;;;4.10;2.80;;;;;;;23.25;68.62;157345.63;5042750;28;20520;-80
2023/07/31 09:49:35;;;;;;;3.73;2.10;;;;;;;23.01;62.40;157284.19;5043638;28;20956;-80
2023/07/31 09:52:40;;;;;;;4.37;2.70;;;;;;;22.94;65.78;157265.91;5042685;28;20474;-80
2023/07/31 09:55:44;;;;;;;2.67;2.20;;;;;;;22.83;66.83;157237.16;5040147;28;20512;-80
2023/07/31 09:58:49;;;;;;;4.40;2.10;;;;;;;22.72;62.04;157208.41;5042488;28;20565;-80
2023/07/31 10:01:56;;;;;;;3.17;2.20;;;;;;;22.82;65.37;157234.59;5043415;28;21296;-80
2023/07/31 10:05:03;;;;;;;2.70;1.97;;;;;;;22.91;63.79;157259.38;5041558;28;20469;-80
2023/07/31 10:07:31;;;;;;;2.30;2.00;;;;;;;22.91;64.07;157259.38;5042837;28;20478;-80
2023/07/31 10:09:58;;;;;;;3.60;2.47;;;;;;;23.01;61.50;157284.19;5042820;28;20538;-81
2023/07/31 10:12:27;;;;;;;4.33;2.50;;;;;;;23.12;63.04;157312.94;5040964;28;20569;-80
2023/07/31 10:14:55;;;;;;;4.20;2.43;;;;;;;23.21;65.76;157336.50;5027378;28;20579;-80
2023/07/31 10:17:23;;;;;;;7.00;2.57;;;;;;;23.28;66.94;157353.47;5046778;28;20459;-80
2023/07/31 10:19:50;;;;;;;3.20;2.47;;;;;;;23.34;68.00;157370.47;5065758;28;20577;-80
2023/07/31 10:22:18;;;;;;;3.70;2.43;;;;;;;23.40;65.84;157386.22;5047468;28;20873;-80
2023/07/31 10:24:46;;;;;;;3.33;2.40;;;;;;;23.46;67.48;157401.88;5063794;28;21409;-81
2023/07/31 10:27:12;;;;;;;3.13;2.10;;;;;;;23.43;66.24;157394.03;5045977;28;20462;-80
2023/07/31 10:29:40;;;;;;;4.03;2.60;;;;;;;23.41;70.13;157387.50;5048090;28;20469;-80
2023/07/31 10:32:10;;;;;;;3.30;2.47;;;;;;;23.37;65.24;157378.38;5044018;28;20486;-80
2023/07/31 10:34:40;;;;;;;3.60;2.70;;;;;;;23.47;64.33;157403.19;5049538;28;20454;-80
2023/07/31 10:37:31;;;;;;;3.50;2.80;;;;;;;23.55;62.01;157425.41;5044660;28;20972;-80
2023/07/31 10:40:00;;;;;;;5.20;2.50;;;;;;;23.63;68.07;157445.03;5022788;28;20481;-80
2023/07/31 10:42:31;;;;;;;2.53;2.20;;;;;;;23.58;61.59;157431.97;5045621;28;20458;-80
2023/07/31 10:44:59;;;;;;;2.80;2.03;;;;;;;23.66;66.02;157451.56;5046701;28;20465;-79
2023/07/31 10:47:26;;;;;;;4.03;2.50;;;;;;;23.69;64.84;157460.72;5039549;28;20539;-80
2023/07/31 10:49:54;;;;;;;4.67;2.30;;;;;;;23.70;66.80;157462.00;5045239;28;20474;-80
2023/07/31 10:52:23;;;;;;;3.30;2.40;;;;;;;23.81;69.12;157492.06;5045948;28;21022;-80
2023/07/31 10:54:50;;;;;;;3.80;2.50;;;;;;;23.81;69.10;157492.06;5045285;28;20471;-80
2023/07/31 10:57:21;;;;;;;3.50;2.20;;;;;;;23.78;63.11;157482.91;5029670;28;20458;-80
2023/07/31 10:59:48;;;;;;;3.50;2.17;;;;;;;23.90;66.38;157514.31;5028789;28;20893;-80
2023/07/31 11:02:26;;;;;;;9.07;2.93;;;;;;;23.95;66.53;157527.38;5024341;28;20459;-80
2023/07/31 11:05:09;;;;;;;2.90;2.33;;;;;;;23.87;65.94;157507.78;5030684;28;20455;-80
2023/07/31 11:07:48;;;;;;;3.67;2.63;;;;;;;23.83;62.11;157496.03;5011601;28;21022;-80
2023/07/31 11:10:18;;;;;;;4.30;2.60;;;;;;;23.90;67.77;157515.63;5045892;28;20443;-80
2023/07/31 11:12:47;;;;;;;3.80;2.43;;;;;;;23.89;67.76;157513.00;5046278;28;20466;-80
2023/07/31 11:15:14;;;;;;;3.60;2.60;;;;;;;23.94;69.88;157524.75;5045544;28;20469;-80
2023/07/31 11:17:41;;;;;;;4.00;2.37;;;;;;;23.89;66.12;157513.00;5026609;28;20451;-80
2023/07/31 11:20:09;;;;;;;4.83;2.97;;;;;;;23.84;63.89;157498.63;5046134;28;21149;-80
2023/07/31 11:22:36;;;;;;;3.43;2.47;;;;;;;23.83;65.50;157496.03;5044755;28;20480;-80
2023/07/31 11:25:03;;;;;;;3.33;2.83;;;;;;;23.85;67.71;157502.56;5059211;28;20529;-80
2023/07/31 11:27:31;;;;;;;3.60;2.83;;;;;;;23.71;60.90;157465.94;5044567;28;20494;-80
2023/07/31 11:30:01;;;;;;;3.50;2.50;;;;;;;23.78;69.94;157484.22;5045328;28;20458;-80
2023/07/31 11:32:28;;;;;;;4.23;3.27;;;;;;;23.69;67.42;157459.41;5037575;28;20562;-79
2023/07/31 11:34:55;;;;;;;3.37;2.50;;;;;;;23.62;64.04;157442.38;5000930;28;20457;-79
2023/07/31 11:37:23;;;;;;;4.67;2.63;;;;;;;23.57;65.72;157429.31;5015459;28;20451;-80
2023/07/31 11:40:00;;;;;;;4.20;3.23;;;;;;;23.54;63.49;157422.78;5038184;28;20467;-79
2023/07/31 11:42:26;;;;;;;4.33;2.90;;;;;;;23.61;71.95;157439.81;5048292;28;20450;-79
2023/07/31 11:44:53;;;;;;;3.53;3.00;;;;;;;23.47;67.07;157403.19;5050888;28;20934;-80
2023/07/31 11:47:20;;;;;;;3.20;2.40;;;;;;;23.41;67.47;157387.50;5017596;28;20455;-80
2023/07/31 11:49:47;;;;;;;4.60;2.77;;;;;;;23.32;63.85;157365.25;5037932;28;20451;-80
2023/07/31 11:52:14;;;;;;;4.63;2.80;;;;;;;23.32;63.78;157363.94;5034570;28;20459;-79
2023/07/31 11:54:42;;;;;;;5.60;3.07;;;;;;;23.34;61.93;157369.16;5031352;28;20447;-79
2023/07/31 11:57:09;;;;;;;3.73;3.00;;;;;;;23.34;61.21;157369.16;5048993;28;20455;-80
2023/07/31 11:59:35;;;;;;;4.27;2.60;;;;;;;23.38;63.80;157379.63;5035826;28;20475;-80
2023/07/31 12:02:02;;;;;;;4.43;2.60;;;;;;;23.47;71.39;157403.19;5015293;28;20476;-79
2023/07/31 12:04:29;;;;;;;5.50;2.57;;;;;;;23.38;68.33;157380.97;5034515;28;20546;-80
2023/07/31 12:06:56;;;;;;;4.03;2.80;;;;;;;23.37;67.09;157377.06;5051411;28;20557;-79
2023/07/31 12:09:26;;;;;;;3.30;2.63;;;;;;;23.33;62.37;157366.53;5038761;28;20447;-79
2023/07/31 12:11:55;;;;;;;3.00;2.70;;;;;;;23.36;68.02;157375.69;5046876;28;20459;-78
2023/07/31 12:14:23;;;;;;;4.27;2.70;;;;;;;23.35;66.72;157373.06;5046639;28;20470;-78
2023/07/31 12:16:54;;;;;;;4.77;3.00;;;;;;;23.29;65.30;157356.09;5033862;28;20452;-78
2023/07/31 12:19:20;;;;;;;3.43;2.60;;;;;;;23.38;70.46;157380.97;5002528;28;20468;-78
2023/07/31 12:21:51;;;;;;;3.90;3.20;;;;;;;23.38;73.98;157379.63;5031592;28;20467;-78
2023/07/31 12:24:22;;;;;;;3.63;2.50;;;;;;;23.27;64.75;157350.88;5032416;28;20699;-78
2023/07/31 12:26:50;;;;;;;3.20;2.37;;;;;;;23.33;68.21;157366.53;5033216;28;20518;-78
2023/07/31 12:29:18;;;;;;;4.10;2.70;;;;;;;23.32;66.90;157363.94;5034453;28;20528;-78
2023/07/31 12:31:44;;;;;;;3.57;2.80;;;;;;;23.37;70.95;157377.06;5032569;28;20446;-78
2023/07/31 12:34:18;;;;;;;2.80;2.17;;;;;;;23.30;72.16;157358.72;5044393;28;20442;-78
2023/07/31 12:36:45;;;;;;;2.93;2.33;;;;;;;23.27;69.32;157350.88;5033469;28;20513;-78